createdAt,value
2023-04-23T00:00:13.685Z,87.40
2023-04-23T00:02:46.855Z,87.50
2023-04-23T00:05:16.518Z,87.60
2023-04-23T00:07:45.252Z,87.50
2023-04-23T00:10:14.093Z,87.60
2023-04-23T00:12:44.627Z,87.80
2023-04-23T00:15:15.248Z,87.70
2023-04-23T00:17:43.442Z,87.80
2023-04-23T00:20:12.367Z,87.50
2023-04-23T00:22:40.718Z,87.40
2023-04-23T00:25:10.303Z,87.40
2023-04-23T00:27:38.762Z,87.30
2023-04-23T00:30:10.070Z,87.90
2023-04-23T00:32:38.254Z,87.70
2023-04-23T00:35:08.230Z,87.50
2023-04-23T00:37:36.642Z,87.50
2023-04-23T00:40:05.894Z,87.90
2023-04-23T00:42:34.206Z,87.80
2023-04-23T00:45:03.042Z,87.70
2023-04-23T00:47:33.720Z,87.90
2023-04-23T00:50:02.953Z,87.80
2023-04-23T00:52:31.737Z,87.80
2023-04-23T00:54:59.920Z,87.80
2023-04-23T00:57:28.327Z,87.70
2023-04-23T00:59:58.365Z,87.80
2023-04-23T01:02:28.092Z,88.00
2023-04-23T01:04:58.774Z,87.90
2023-04-23T01:07:28.232Z,87.90
2023-04-23T01:09:57.082Z,87.90
2023-04-23T01:12:25.277Z,87.80
2023-04-23T01:14:53.779Z,87.90
2023-04-23T01:17:23.105Z,88.00
2023-04-23T01:19:52.125Z,88.10
2023-04-23T01:22:22.241Z,88.20
2023-04-23T01:24:50.775Z,88.10
2023-04-23T01:27:20.137Z,88.30
2023-04-23T01:29:49.120Z,88.60
2023-04-23T01:32:18.438Z,88.50
2023-04-23T01:34:48.968Z,88.50
2023-04-23T01:37:18.365Z,88.50
2023-04-23T01:39:48.013Z,88.60
2023-04-23T01:42:17.234Z,88.60
2023-04-23T01:44:45.784Z,88.60
2023-04-23T01:47:14.089Z,88.70
2023-04-23T01:49:42.560Z,88.70
2023-04-23T01:52:11.358Z,88.60
2023-04-23T01:54:39.779Z,88.30
2023-04-23T01:57:10.645Z,88.40
2023-04-23T01:59:39.221Z,88.70
2023-04-23T02:02:10.962Z,88.60
2023-04-23T02:04:41.547Z,88.50
2023-04-23T02:07:10.067Z,88.80
2023-04-23T02:09:38.808Z,88.80
2023-04-23T02:12:07.231Z,88.70
2023-04-23T02:14:36.817Z,88.80
2023-04-23T02:17:04.963Z,89.00
2023-04-23T02:19:35.855Z,88.90
2023-04-23T02:22:04.173Z,89.00
2023-04-23T02:24:32.345Z,89.10
2023-04-23T02:27:00.625Z,88.90
2023-04-23T02:29:29.082Z,88.80
2023-04-23T02:31:58.701Z,88.70
2023-04-23T02:34:26.908Z,88.70
2023-04-23T02:36:55.106Z,88.60
2023-04-23T02:39:23.370Z,88.40
2023-04-23T02:41:51.945Z,88.20
2023-04-23T02:44:20.242Z,88.10
2023-04-23T02:46:48.464Z,87.90
2023-04-23T02:49:18.007Z,88.00
2023-04-23T02:51:46.287Z,87.80
2023-04-23T02:54:14.746Z,87.80
2023-04-23T02:56:43.222Z,87.80
2023-04-23T02:59:12.005Z,87.70
2023-04-23T03:01:40.312Z,87.70
2023-04-23T03:04:08.806Z,87.70
2023-04-23T03:06:38.550Z,87.50
2023-04-23T03:09:06.825Z,87.20
2023-04-23T03:11:35.479Z,87.40
2023-04-23T03:14:03.715Z,87.40
2023-04-23T03:16:32.847Z,87.30
2023-04-23T03:19:01.512Z,87.20
2023-04-23T03:21:29.687Z,87.10
2023-04-23T03:23:59.357Z,87.10
2023-04-23T03:26:27.670Z,87.10
2023-04-23T03:28:55.906Z,87.20
2023-04-23T03:31:24.312Z,87.10
2023-04-23T03:33:52.610Z,87.10
2023-04-23T03:36:21.575Z,87.10
2023-04-23T03:38:49.735Z,87.20
2023-04-23T03:41:19.309Z,87.10
2023-04-23T03:43:47.606Z,87.20
2023-04-23T03:46:15.860Z,87.20
2023-04-23T03:48:44.130Z,87.10
2023-04-23T03:51:12.484Z,87.10
2023-04-23T03:53:40.735Z,87.00
2023-04-23T03:56:09.102Z,87.00
2023-04-23T03:58:38.721Z,87.00
2023-04-23T04:01:07.099Z,86.90
2023-04-23T04:03:35.827Z,86.90
2023-04-23T04:06:04.561Z,87.00
2023-04-23T04:08:32.862Z,87.00
2023-04-23T04:11:01.231Z,87.10
2023-04-23T04:13:29.547Z,87.10
2023-04-23T04:15:59.140Z,87.20
2023-04-23T04:18:27.317Z,87.30
2023-04-23T04:20:55.714Z,87.30
2023-04-23T04:23:23.917Z,87.30
2023-04-23T04:25:54.618Z,87.30
2023-04-23T04:28:23.033Z,87.40
2023-04-23T04:30:51.259Z,87.40
2023-04-23T04:33:21.096Z,87.40
2023-04-23T04:35:49.676Z,87.40
2023-04-23T04:38:18.393Z,87.30
2023-04-23T04:40:46.685Z,87.40
2023-04-23T04:43:16.659Z,87.40
2023-04-23T04:45:45.022Z,87.50
2023-04-23T04:48:13.219Z,87.50
2023-04-23T04:50:42.850Z,87.40
2023-04-23T04:53:11.158Z,87.40
2023-04-23T04:55:39.493Z,87.50
2023-04-23T04:58:07.795Z,87.60
2023-04-23T05:00:36.234Z,87.70
2023-04-23T05:03:05.147Z,87.60
2023-04-23T05:05:34.534Z,87.60
2023-04-23T05:08:04.240Z,87.50
2023-04-23T05:10:32.506Z,87.40
2023-04-23T05:13:02.300Z,87.50
2023-04-23T05:15:30.808Z,87.40
2023-04-23T05:17:59.179Z,87.40
2023-04-23T05:20:27.668Z,87.40
2023-04-23T05:22:56.047Z,87.30
2023-04-23T05:25:25.633Z,87.30
2023-04-23T05:27:53.921Z,87.20
2023-04-23T05:30:22.235Z,87.30
2023-04-23T05:32:50.797Z,87.30
2023-04-23T05:35:19.134Z,87.10
2023-04-23T05:37:47.332Z,86.90
2023-04-23T05:40:15.657Z,87.00
2023-04-23T05:42:45.438Z,86.90
2023-04-23T05:45:13.744Z,86.80
2023-04-23T05:47:42.043Z,86.80
2023-04-23T05:50:12.402Z,86.80
2023-04-23T05:52:40.709Z,86.60
2023-04-23T05:55:10.267Z,86.50
2023-04-23T05:57:39.262Z,86.40
2023-04-23T06:00:11.813Z,86.50
2023-04-23T06:02:40.565Z,86.40
2023-04-23T06:05:10.661Z,86.40
2023-04-23T06:07:39.125Z,86.40
2023-04-23T06:10:09.305Z,86.50
2023-04-23T06:12:39.205Z,86.80
2023-04-23T06:15:11.518Z,86.60
2023-04-23T06:17:40.242Z,86.50
2023-04-23T06:20:11.768Z,86.20
2023-04-23T06:22:40.309Z,85.40
2023-04-23T06:25:09.866Z,85.30
2023-04-23T06:27:38.448Z,84.50
2023-04-23T06:30:09.931Z,84.20
2023-04-23T06:32:38.224Z,84.00
2023-04-23T06:35:08.644Z,83.90
2023-04-23T06:37:37.100Z,83.30
2023-04-23T06:40:07.042Z,83.30
2023-04-23T06:42:35.401Z,83.00
2023-04-23T06:45:06.255Z,82.70
2023-04-23T06:47:35.971Z,82.30
2023-04-23T06:50:05.691Z,81.30
2023-04-23T06:52:33.962Z,81.90
2023-04-23T06:55:02.148Z,81.50
2023-04-23T06:57:30.411Z,80.70
2023-04-23T06:59:58.653Z,80.30
2023-04-23T07:02:27.139Z,79.70
2023-04-23T07:04:56.825Z,79.30
2023-04-23T07:07:25.179Z,79.10
2023-04-23T07:09:53.378Z,78.20
2023-04-23T07:12:21.768Z,78.70
2023-04-23T07:14:50.012Z,78.00
2023-04-23T07:17:18.204Z,77.60
2023-04-23T07:19:46.370Z,77.00
2023-04-23T07:22:16.153Z,76.50
2023-04-23T07:24:44.389Z,76.70
2023-04-23T07:27:12.622Z,76.00
2023-04-23T07:29:40.915Z,76.10
2023-04-23T07:32:09.200Z,73.80
2023-04-23T07:34:38.036Z,74.90
2023-04-23T07:37:06.488Z,73.60
2023-04-23T07:39:36.305Z,74.00
2023-04-23T07:42:05.629Z,73.90
2023-04-23T07:44:34.028Z,72.80
2023-04-23T07:47:02.508Z,73.70
2023-04-23T07:49:31.101Z,73.30
2023-04-23T07:51:59.323Z,70.60
2023-04-23T07:54:28.014Z,69.20
2023-04-23T07:56:58.118Z,68.90
2023-04-23T07:59:26.488Z,67.80
2023-04-23T08:01:55.227Z,68.10
2023-04-23T08:04:24.133Z,68.80
2023-04-23T08:06:52.932Z,69.60
2023-04-23T08:09:21.139Z,69.30
2023-04-23T08:11:49.421Z,68.30
2023-04-23T08:14:19.442Z,67.70
2023-04-23T08:16:47.718Z,67.00
2023-04-23T08:19:17.061Z,67.70
2023-04-23T08:21:45.438Z,68.40
2023-04-23T08:24:13.620Z,68.40
2023-04-23T08:26:41.880Z,67.10
2023-04-23T08:29:11.520Z,66.90
2023-04-23T08:31:41.523Z,66.50
2023-04-23T08:34:09.780Z,65.60
2023-04-23T08:36:37.932Z,66.80
2023-04-23T08:39:07.103Z,64.50
2023-04-23T08:41:42.617Z,64.40
2023-04-23T08:44:19.294Z,66.40
2023-04-23T08:46:49.945Z,64.90
2023-04-23T08:49:20.187Z,63.70
2023-04-23T08:51:52.021Z,63.10
2023-04-23T08:54:26.850Z,61.70
2023-04-23T08:56:58.571Z,61.00
2023-04-23T08:59:27.582Z,62.00
2023-04-23T09:01:57.560Z,61.10
2023-04-23T09:04:26.387Z,60.80
2023-04-23T09:06:54.666Z,61.20
2023-04-23T09:09:24.679Z,60.70
2023-04-23T09:11:54.795Z,61.50
2023-04-23T09:14:25.884Z,62.40
2023-04-23T09:16:56.331Z,62.60
2023-04-23T09:19:27.597Z,64.00
2023-04-23T09:21:56.433Z,64.40
2023-04-23T09:24:25.401Z,64.90
2023-04-23T09:26:56.908Z,61.80
2023-04-23T09:29:26.027Z,60.50
2023-04-23T09:32:07.521Z,59.90
2023-04-23T09:34:37.861Z,58.30
2023-04-23T09:37:11.009Z,60.70
2023-04-23T09:39:41.168Z,59.40
2023-04-23T09:42:11.235Z,61.40
2023-04-23T09:44:39.452Z,58.50
2023-04-23T09:47:12.020Z,59.20
2023-04-23T09:49:49.838Z,59.70
2023-04-23T09:52:19.294Z,59.10
2023-04-23T09:54:48.234Z,58.60
2023-04-23T09:57:17.287Z,59.60
2023-04-23T09:59:48.451Z,56.60
2023-04-23T10:02:21.151Z,58.10
2023-04-23T10:04:58.633Z,57.20
2023-04-23T10:07:35.949Z,57.30
2023-04-23T10:10:04.415Z,58.80
2023-04-23T10:12:53.576Z,57.20
2023-04-23T10:15:26.863Z,58.40
2023-04-23T10:17:56.876Z,59.10
2023-04-23T10:20:25.990Z,59.50
2023-04-23T10:22:56.418Z,59.80
2023-04-23T10:25:26.691Z,60.20
2023-04-23T10:27:56.465Z,61.60
2023-04-23T10:30:25.921Z,62.10
2023-04-23T10:32:56.700Z,60.70
2023-04-23T10:35:25.185Z,62.30
2023-04-23T10:37:53.680Z,61.50
2023-04-23T10:40:29.453Z,60.70
2023-04-23T10:42:58.221Z,60.50
2023-04-23T10:45:26.915Z,61.70
2023-04-23T10:47:56.861Z,62.00
2023-04-23T10:50:28.166Z,62.50
2023-04-23T10:52:58.126Z,62.80
2023-04-23T10:55:29.676Z,61.60
2023-04-23T10:58:02.067Z,61.60
2023-04-23T11:00:46.024Z,63.30
2023-04-23T11:03:43.069Z,62.80
2023-04-23T11:06:16.583Z,63.30
2023-04-23T11:08:54.797Z,63.40
2023-04-23T11:11:40.725Z,63.20
2023-04-23T11:14:15.096Z,62.20
2023-04-23T11:16:43.633Z,61.60
2023-04-23T11:19:16.157Z,61.70
2023-04-23T11:22:02.599Z,60.40
2023-04-23T11:24:33.586Z,59.90
2023-04-23T11:27:02.841Z,59.70
2023-04-23T11:29:31.185Z,59.80
2023-04-23T11:32:03.230Z,60.10
2023-04-23T11:34:34.284Z,59.80
2023-04-23T11:37:05.033Z,60.80
2023-04-23T11:39:33.464Z,61.50
2023-04-23T11:42:03.250Z,60.50
2023-04-23T11:44:31.937Z,60.60
2023-04-23T11:47:03.075Z,59.70
2023-04-23T11:49:32.849Z,59.30
2023-04-23T11:52:02.746Z,58.30
2023-04-23T11:54:31.040Z,60.90
2023-04-23T11:56:59.819Z,61.80
2023-04-23T11:59:28.358Z,60.60
2023-04-23T12:01:58.776Z,59.00
2023-04-23T12:04:29.550Z,59.90
2023-04-23T12:07:00.104Z,60.30
2023-04-23T12:09:29.980Z,59.90
2023-04-23T12:11:59.226Z,59.70
2023-04-23T12:14:29.945Z,58.40
2023-04-23T12:16:59.679Z,59.50
2023-04-23T12:19:30.932Z,60.50
2023-04-23T12:22:02.896Z,57.10
2023-04-23T12:24:33.351Z,57.50
2023-04-23T12:27:02.912Z,56.60
2023-04-23T12:29:32.202Z,56.80
2023-04-23T12:32:01.634Z,56.50
2023-04-23T12:34:29.912Z,53.60
2023-04-23T12:36:58.486Z,53.60
2023-04-23T12:39:31.836Z,52.50
2023-04-23T12:42:03.037Z,52.60
2023-04-23T12:44:31.483Z,52.30
2023-04-23T12:47:03.285Z,52.80
2023-04-23T12:49:32.901Z,53.20
2023-04-23T12:52:02.966Z,54.10
2023-04-23T12:54:34.228Z,51.80
2023-04-23T12:57:03.119Z,53.70
2023-04-23T12:59:31.766Z,55.20
2023-04-23T13:02:02.353Z,54.50
2023-04-23T13:04:32.069Z,53.00
2023-04-23T13:07:00.444Z,51.70
2023-04-23T13:09:30.386Z,53.70
2023-04-23T13:12:00.795Z,52.50
2023-04-23T13:14:31.793Z,54.10
2023-04-23T13:17:00.169Z,53.60
2023-04-23T13:19:28.394Z,53.90
2023-04-23T13:21:56.625Z,54.50
2023-04-23T13:24:24.865Z,54.20
2023-04-23T13:26:53.154Z,53.70
2023-04-23T13:29:22.677Z,54.00
2023-04-23T13:31:51.243Z,52.90
2023-04-23T13:34:19.577Z,52.80
2023-04-23T13:36:48.175Z,52.90
2023-04-23T13:39:16.674Z,52.70
2023-04-23T13:41:46.502Z,51.80
2023-04-23T13:44:16.031Z,51.30
2023-04-23T13:46:45.724Z,52.90
2023-04-23T13:49:14.022Z,52.20
2023-04-23T13:51:42.256Z,51.30
2023-04-23T13:54:10.719Z,51.00
2023-04-23T13:56:38.994Z,52.20
2023-04-23T13:59:18.056Z,52.40
2023-04-23T14:01:50.289Z,52.00
2023-04-23T14:04:19.567Z,51.70
2023-04-23T14:06:47.818Z,52.60
2023-04-23T14:09:16.087Z,52.40
2023-04-23T14:11:44.395Z,52.40
2023-04-23T14:14:12.658Z,52.70
2023-04-23T14:16:40.877Z,53.80
2023-04-23T14:19:10.514Z,54.90
2023-04-23T14:21:38.768Z,55.90
2023-04-23T14:24:18.063Z,56.80
2023-04-23T14:26:49.681Z,56.30
2023-04-23T14:29:33.787Z,56.90
2023-04-23T14:32:02.081Z,58.00
2023-04-23T14:34:31.668Z,59.70
2023-04-23T14:36:59.934Z,59.80
2023-04-23T14:39:29.398Z,61.50
2023-04-23T14:41:57.827Z,63.50
2023-04-23T14:44:26.832Z,63.90
2023-04-23T14:46:55.345Z,66.70
2023-04-23T14:49:23.811Z,68.40
2023-04-23T14:51:55.020Z,69.90
2023-04-23T14:54:23.963Z,72.60
2023-04-23T14:56:52.746Z,74.60
2023-04-23T14:59:21.714Z,75.80
2023-04-23T15:01:50.205Z,76.00
2023-04-23T15:04:18.662Z,76.80
2023-04-23T15:06:46.948Z,77.50
2023-04-23T15:09:17.052Z,78.20
2023-04-23T15:11:45.332Z,77.90
2023-04-23T15:14:27.888Z,78.80
2023-04-23T15:16:56.206Z,79.70
2023-04-23T15:19:24.708Z,79.30
2023-04-23T15:21:52.940Z,79.60
2023-04-23T15:24:22.465Z,79.60
2023-04-23T15:26:53.338Z,79.50
2023-04-23T15:29:21.611Z,79.50
2023-04-23T15:31:51.762Z,80.00
2023-04-23T15:34:19.987Z,80.30
2023-04-23T15:36:54.645Z,80.60
2023-04-23T15:39:24.880Z,80.20
2023-04-23T15:41:53.864Z,80.70
2023-04-23T15:44:22.343Z,80.70
2023-04-23T15:46:50.661Z,82.00
2023-04-23T15:49:18.986Z,81.50
2023-04-23T15:51:47.393Z,82.80
2023-04-23T15:54:15.766Z,82.40
2023-04-23T15:56:45.893Z,82.50
2023-04-23T15:59:14.354Z,83.10
2023-04-23T16:01:42.881Z,83.60
2023-04-23T16:04:12.138Z,83.70
2023-04-23T16:06:41.221Z,83.70
2023-04-23T16:09:09.740Z,84.00
2023-04-23T16:11:38.847Z,83.70
2023-04-23T16:14:10.156Z,83.90
2023-04-23T16:16:39.426Z,83.80
2023-04-23T16:19:07.789Z,84.10
2023-04-23T16:21:36.190Z,83.90
2023-04-23T16:24:04.910Z,84.00
2023-04-23T16:26:33.310Z,84.10
2023-04-23T16:31:34.347Z,83.90
2023-04-23T16:34:02.782Z,84.60
2023-04-23T16:36:32.607Z,84.50
2023-04-23T16:39:01.084Z,84.30
2023-04-23T16:41:29.463Z,84.50
2023-04-23T16:43:57.804Z,84.30
2023-04-23T16:46:30.045Z,84.60
2023-04-23T16:49:00.242Z,85.00
2023-04-23T16:51:29.883Z,84.60
2023-04-23T16:53:58.693Z,84.60
2023-04-23T16:56:27.152Z,84.70
2023-04-23T16:58:55.786Z,84.30
2023-04-23T17:01:24.287Z,84.20
2023-04-23T17:03:52.953Z,84.40
2023-04-23T17:06:28.723Z,84.40
2023-04-23T17:08:58.670Z,84.50
2023-04-23T17:11:27.764Z,84.30
2023-04-23T17:13:57.103Z,84.20
2023-04-23T17:16:26.775Z,84.50
2023-04-23T17:18:55.769Z,84.40
2023-04-23T17:21:26.032Z,84.60
2023-04-23T17:23:54.409Z,84.30
2023-04-23T17:26:22.755Z,84.40
2023-04-23T17:28:51.285Z,84.20
2023-04-23T17:31:20.221Z,84.00
2023-04-23T17:33:49.644Z,83.90
2023-04-23T17:36:18.165Z,83.60
2023-04-23T17:38:47.947Z,83.00
2023-04-23T17:41:17.380Z,82.90
2023-04-23T17:43:46.007Z,82.90
2023-04-23T17:46:14.483Z,82.80
2023-04-23T17:48:42.881Z,83.00
2023-04-23T17:51:11.212Z,83.10
2023-04-23T17:53:39.634Z,83.20
2023-04-23T17:56:10.173Z,83.30
2023-04-23T17:58:38.612Z,83.60
2023-04-23T18:01:08.690Z,83.70
2023-04-23T18:03:37.398Z,83.90
2023-04-23T18:06:08.667Z,83.90
2023-04-23T18:08:38.927Z,84.00
2023-04-23T18:11:09.600Z,84.30
2023-04-23T18:13:38.215Z,84.40
2023-04-23T18:16:06.865Z,84.50
2023-04-23T18:18:35.216Z,84.50
2023-04-23T18:21:04.628Z,84.40
2023-04-23T18:23:32.950Z,84.60
2023-04-23T18:26:02.111Z,84.40
2023-04-23T18:28:32.863Z,84.40
2023-04-23T18:31:02.740Z,84.40
2023-04-23T18:33:38.735Z,84.30
2023-04-23T18:36:21.003Z,84.00
2023-04-23T18:38:50.273Z,83.60
2023-04-23T18:41:18.564Z,83.50
2023-04-23T18:43:48.438Z,83.60
2023-04-23T18:46:16.910Z,83.40
2023-04-23T18:48:53.964Z,83.00
2023-04-23T18:51:27.626Z,82.90
2023-04-23T18:53:56.073Z,82.90
2023-04-23T18:56:25.226Z,82.80
2023-04-23T18:58:55.161Z,82.60
2023-04-23T19:01:24.188Z,82.00
2023-04-23T19:03:52.721Z,81.80
2023-04-23T19:06:21.301Z,81.60
2023-04-23T19:08:49.607Z,81.70
2023-04-23T19:11:18.072Z,82.00
2023-04-23T19:13:46.728Z,81.50
2023-04-23T19:16:18.248Z,81.00
2023-04-23T19:18:46.807Z,80.80
2023-04-23T19:21:15.159Z,79.90
2023-04-23T19:23:43.514Z,78.20
2023-04-23T19:26:12.234Z,76.30
2023-04-23T19:28:41.285Z,76.30
2023-04-23T19:31:09.705Z,76.10
2023-04-23T19:33:42.176Z,74.80
2023-04-23T19:36:10.802Z,73.40
2023-04-23T19:38:39.387Z,73.20
2023-04-23T19:41:07.870Z,74.10
2023-04-23T19:43:36.251Z,74.20
2023-04-23T19:46:04.668Z,74.90
2023-04-23T19:48:33.024Z,74.80
2023-04-23T19:51:02.922Z,75.00
2023-04-23T19:53:31.632Z,75.20
2023-04-23T19:55:59.930Z,75.70
2023-04-23T19:58:28.426Z,76.30
2023-04-23T20:00:56.967Z,77.10
2023-04-23T20:03:26.380Z,77.30
2023-04-23T20:05:58.290Z,78.30
2023-04-23T20:08:29.735Z,79.80
2023-04-23T20:10:58.510Z,81.10
2023-04-23T20:13:26.876Z,82.50
2023-04-23T20:15:55.229Z,83.10
2023-04-23T20:18:25.681Z,84.20
2023-04-23T20:20:54.064Z,84.70
2023-04-23T20:23:22.418Z,85.40
2023-04-23T20:25:52.126Z,85.80
2023-04-23T20:28:20.687Z,86.50
2023-04-23T20:30:48.973Z,86.90
2023-04-23T20:33:18.937Z,87.20
2023-04-23T20:35:47.731Z,87.40
2023-04-23T20:38:19.255Z,87.20
2023-04-23T20:40:47.782Z,87.50
2023-04-23T20:43:17.590Z,87.50
2023-04-23T20:45:47.745Z,87.60
2023-04-23T20:48:16.753Z,87.80
2023-04-23T20:50:45.151Z,87.90
2023-04-23T20:53:14.320Z,88.10
2023-04-23T20:55:42.666Z,88.10
2023-04-23T20:58:11.115Z,88.20
2023-04-23T21:00:44.486Z,88.30
2023-04-23T21:03:13.429Z,88.40
2023-04-23T21:05:44.355Z,88.00
2023-04-23T21:08:13.758Z,88.10
2023-04-23T21:10:42.531Z,87.60
2023-04-23T21:13:13.284Z,87.70
2023-04-23T21:15:43.182Z,87.80
2023-04-23T21:18:11.650Z,87.60
2023-04-23T21:20:40.070Z,87.80
2023-04-23T21:23:10.034Z,87.80
2023-04-23T21:25:38.952Z,87.90
2023-04-23T21:28:07.603Z,87.80
2023-04-23T21:30:53.506Z,87.80
2023-04-23T21:33:25.045Z,88.10
2023-04-23T21:35:55.049Z,88.20
2023-04-23T21:38:23.419Z,87.90
2023-04-23T21:40:51.699Z,88.10
2023-04-23T21:43:20.458Z,87.80
2023-04-23T21:45:48.862Z,87.70
2023-04-23T21:48:18.571Z,87.70
2023-04-23T21:50:48.148Z,87.30
2023-04-23T21:53:16.503Z,86.70
2023-04-23T21:55:44.745Z,86.80
2023-04-23T21:58:17.099Z,86.50
2023-04-23T22:00:47.908Z,86.50
2023-04-23T22:03:31.052Z,86.30
2023-04-23T22:06:07.081Z,86.20
2023-04-23T22:08:37.925Z,85.90
2023-04-23T22:11:06.865Z,86.10
2023-04-23T22:13:35.997Z,85.40
2023-04-23T22:16:10.705Z,85.40
2023-04-23T22:18:46.354Z,85.30
2023-04-23T22:21:14.581Z,85.20
2023-04-23T22:23:42.823Z,85.10
2023-04-23T22:26:11.179Z,85.50
2023-04-23T22:28:39.375Z,85.10
2023-04-23T22:31:07.582Z,84.70
2023-04-23T22:33:36.576Z,85.00
2023-04-23T22:36:06.757Z,85.00
2023-04-23T22:38:35.734Z,85.20
2023-04-23T22:41:04.072Z,84.80
2023-04-23T22:43:32.417Z,85.00
2023-04-23T22:46:00.812Z,84.80
2023-04-23T22:48:29.148Z,84.60
2023-04-23T22:50:57.600Z,84.40
2023-04-23T22:53:27.401Z,84.10
2023-04-23T22:55:55.818Z,84.10
2023-04-23T22:58:24.063Z,84.10
2023-04-23T23:00:52.376Z,83.90
2023-04-23T23:03:22.061Z,84.20
2023-04-23T23:05:50.455Z,84.20
2023-04-23T23:08:18.721Z,84.10
2023-04-23T23:10:48.407Z,84.10
2023-04-23T23:13:16.658Z,84.30
2023-04-23T23:15:44.894Z,84.00
2023-04-23T23:18:13.256Z,84.00
2023-04-23T23:20:44.483Z,83.60
2023-04-23T23:23:12.882Z,83.80
2023-04-23T23:25:41.180Z,83.90
2023-04-23T23:28:10.873Z,83.40
2023-04-23T23:30:39.319Z,83.40
2023-04-23T23:33:07.560Z,83.10
2023-04-23T23:35:35.990Z,82.60
2023-04-23T23:38:04.210Z,82.70
2023-04-23T23:40:32.553Z,82.70
2023-04-23T23:43:00.877Z,82.70
2023-04-23T23:45:31.000Z,82.50
2023-04-23T23:47:59.938Z,82.30
2023-04-23T23:50:28.444Z,82.20
2023-04-23T23:52:56.692Z,82.10
2023-04-23T23:55:24.965Z,82.00
2023-04-23T23:57:53.307Z,82.40
